createdAt,value
2016-09-08T00:00:31.799Z,58.82
2016-09-08T00:01:42.109Z,58.79
2016-09-08T00:02:52.397Z,58.89
2016-09-08T00:04:02.695Z,58.79
2016-09-08T00:05:12.980Z,58.79
2016-09-08T00:06:23.272Z,58.7
2016-09-08T00:07:33.559Z,58.6
2016-09-08T00:08:43.557Z,58.98
2016-09-08T00:09:53.871Z,58.89
2016-09-08T00:11:04.176Z,58.98
2016-09-08T00:12:14.483Z,58.98
2016-09-08T00:13:24.772Z,58.98
2016-09-08T00:14:34.754Z,58.89
2016-09-08T00:15:44.746Z,58.79
2016-09-08T00:16:54.736Z,58.79
2016-09-08T00:18:05.031Z,58.79
2016-09-08T00:19:15.322Z,58.98
2016-09-08T00:20:25.618Z,58.89
2016-09-08T00:21:35.909Z,58.98
2016-09-08T00:22:46.241Z,58.79
2016-09-08T00:23:56.533Z,58.98
2016-09-08T00:25:06.842Z,58.79
2016-09-08T00:26:17.142Z,58.7
2016-09-08T00:27:27.121Z,58.89
2016-09-08T00:28:36.794Z,58.89
2016-09-08T00:29:46.771Z,58.98
2016-09-08T00:30:56.749Z,58.89
2016-09-08T00:32:06.421Z,58.5
2016-09-08T00:33:16.703Z,58.79
2016-09-08T00:34:26.999Z,58.79
2016-09-08T00:35:36.670Z,58.5
2016-09-08T00:36:46.962Z,58.79
2016-09-08T00:37:57.268Z,58.7
2016-09-08T00:39:07.246Z,58.79
2016-09-08T00:40:17.533Z,58.79
2016-09-08T00:41:27.815Z,58.79
2016-09-08T00:42:38.097Z,58.98
2016-09-08T00:43:48.403Z,58.79
2016-09-08T00:44:58.385Z,58.6
2016-09-08T00:46:08.366Z,58.89
2016-09-08T00:47:17.738Z,58.79
2016-09-08T00:48:28.029Z,58.6
2016-09-08T00:49:37.986Z,58.37
2016-09-08T00:50:48.295Z,58.6
2016-09-08T00:51:58.265Z,58.86
2016-09-08T00:53:08.566Z,58.67
2016-09-08T00:54:17.934Z,59.15
2016-09-08T00:55:27.611Z,58.86
2016-09-08T00:56:37.608Z,58.89
2016-09-08T00:57:47.883Z,58.47
2016-09-08T00:58:58.191Z,58.47
2016-09-08T01:00:08.488Z,59.05
2016-09-08T01:01:18.470Z,58.37
2016-09-08T01:02:28.790Z,59.44
2016-09-08T01:03:38.492Z,59.05
2016-09-08T01:04:48.790Z,59.05
2016-09-08T01:05:58.756Z,58.95
2016-09-08T01:07:08.968Z,59.05
2016-09-08T01:08:19.261Z,58.95
2016-09-08T01:09:29.242Z,58.86
2016-09-08T01:10:39.544Z,58.95
2016-09-08T01:11:49.833Z,58.95
2016-09-08T01:13:00.138Z,58.95
2016-09-08T01:14:10.125Z,59.34
2016-09-08T01:15:20.410Z,58.76
2016-09-08T01:16:30.099Z,58.57
2016-09-08T01:17:40.075Z,58.76
2016-09-08T01:18:50.055Z,58.76
2016-09-08T01:20:00.345Z,58.47
2016-09-08T01:21:10.012Z,58.95
2016-09-08T01:22:20.030Z,58.57
2016-09-08T01:23:30.331Z,58.86
2016-09-08T01:24:39.689Z,58.86
2016-09-08T01:25:49.991Z,58.47
2016-09-08T01:26:59.974Z,58.95
2016-09-08T01:28:10.263Z,58.95
2016-09-08T01:29:20.246Z,59.15
2016-09-08T01:30:29.627Z,59.5
2016-09-08T01:31:39.602Z,59.12
2016-09-08T01:32:49.892Z,58.67
2016-09-08T01:34:00.180Z,59.15
2016-09-08T01:35:10.180Z,59.05
2016-09-08T01:36:20.468Z,59.53
2016-09-08T01:37:30.452Z,59.02
2016-09-08T01:38:40.769Z,58.92
2016-09-08T01:39:50.155Z,58.83
2016-09-08T01:41:00.439Z,58.83
2016-09-08T01:42:10.120Z,58.47
2016-09-08T01:43:20.437Z,58.76
2016-09-08T01:44:30.410Z,58.83
2016-09-08T01:45:40.715Z,58.57
2016-09-08T01:46:51.003Z,58.76
2016-09-08T01:48:01.284Z,58.76
2016-09-08T01:49:11.583Z,58.57
2016-09-08T01:50:21.861Z,58.76
2016-09-08T01:51:31.842Z,58.67
2016-09-08T01:52:41.844Z,58.28
2016-09-08T01:53:52.134Z,59.05
2016-09-08T01:55:02.113Z,58.76
2016-09-08T01:56:12.100Z,59.15
2016-09-08T01:57:22.086Z,59.63
2016-09-08T01:58:32.059Z,59.15
2016-09-08T01:59:41.731Z,59.12
2016-09-08T02:00:52.009Z,59.22
2016-09-08T02:02:01.356Z,59.22
2016-09-08T02:03:11.335Z,59.15
2016-09-08T02:04:21.010Z,59.05
2016-09-08T02:05:30.984Z,59.15
2016-09-08T02:06:41.271Z,59.24
2016-09-08T02:07:51.557Z,59.05
2016-09-08T02:09:01.832Z,59.24
2016-09-08T02:10:11.830Z,59.24
2016-09-08T02:11:21.814Z,59.22
2016-09-08T02:12:31.801Z,59.24
2016-09-08T02:13:42.089Z,59.12
2016-09-08T02:14:52.062Z,59.05
2016-09-08T02:16:02.350Z,59.02
2016-09-08T02:17:12.333Z,59.05
2016-09-08T02:18:22.009Z,59.12
2016-09-08T02:19:32.289Z,59.24
2016-09-08T02:20:42.270Z,59.12
2016-09-08T02:21:52.244Z,59.12
2016-09-08T02:23:02.226Z,59.02
2016-09-08T02:24:12.529Z,59.5
2016-09-08T02:25:22.198Z,59.41
2016-09-08T02:26:32.501Z,58.83
2016-09-08T02:27:42.786Z,58.54
2016-09-08T02:28:52.769Z,58.92
2016-09-08T02:30:02.745Z,58.95
2016-09-08T02:31:12.416Z,58.45
2016-09-08T02:32:22.709Z,58.47
2016-09-08T02:33:32.685Z,58.45
2016-09-08T02:34:42.963Z,59.02
2016-09-08T02:35:52.939Z,58.45
2016-09-08T02:37:02.610Z,58.73
2016-09-08T02:38:12.294Z,59.22
2016-09-08T02:39:21.958Z,59.41
2016-09-08T02:40:31.940Z,59.02
2016-09-08T02:41:41.921Z,58.92
2016-09-08T02:42:51.607Z,58.54
2016-09-08T02:44:01.905Z,59.41
2016-09-08T02:45:12.193Z,58.92
2016-09-08T02:46:22.188Z,59.02
2016-09-08T02:47:32.171Z,59.6
2016-09-08T02:48:42.458Z,58.64
2016-09-08T02:49:51.831Z,59.12
2016-09-08T02:51:01.796Z,59.12
2016-09-08T02:52:11.165Z,59.12
2016-09-08T02:53:21.444Z,59.12
2016-09-08T02:54:31.736Z,59.02
2016-09-08T02:55:42.019Z,59.12
2016-09-08T02:56:52.329Z,59.31
2016-09-08T02:58:02.606Z,58.92
2016-09-08T02:59:12.906Z,59.22
2016-09-08T03:00:23.198Z,59.22
2016-09-08T03:32:28.271Z,57.06
2016-09-08T03:33:38.544Z,57.76
2016-09-08T03:34:48.822Z,58.53
2016-09-08T03:35:58.473Z,58.88
2016-09-08T03:37:08.142Z,59.77
2016-09-08T03:38:18.127Z,59.97
2016-09-08T03:39:27.791Z,59.97
2016-09-08T03:40:38.088Z,60.16
2016-09-08T03:41:48.384Z,60.35
2016-09-08T03:42:58.344Z,60.64
2016-09-08T03:44:08.318Z,60
2016-09-08T03:45:18.007Z,60.09
2016-09-08T03:46:27.997Z,60
2016-09-08T03:47:37.983Z,60.09
2016-09-08T03:48:48.265Z,60.03
2016-09-08T03:49:58.244Z,59.93
2016-09-08T03:51:08.235Z,59.93
2016-09-08T03:52:18.533Z,60.25
2016-09-08T03:53:28.513Z,60.25
2016-09-08T03:54:38.499Z,59.77
2016-09-08T03:55:48.163Z,59.96
2016-09-08T03:56:58.167Z,59.8
2016-09-08T03:58:08.164Z,59.58
2016-09-08T03:59:18.442Z,59.89
2016-09-08T04:00:27.800Z,60.18
2016-09-08T04:01:37.789Z,59.8
2016-09-08T04:02:47.772Z,59.8
2016-09-08T04:03:58.063Z,59.12
2016-09-08T04:05:08.055Z,59.41
2016-09-08T04:06:18.341Z,59.51
2016-09-08T04:07:28.648Z,59.51
2016-09-08T04:08:38.632Z,59.64
2016-09-08T04:09:48.918Z,59.22
2016-09-08T04:10:58.896Z,59.06
2016-09-08T04:12:08.866Z,58.96
2016-09-08T04:13:19.158Z,59.06
2016-09-08T04:14:29.481Z,59.34
2016-09-08T04:15:39.463Z,59.16
2016-09-08T04:16:49.767Z,59.16
2016-09-08T04:17:59.443Z,59.25
2016-09-08T04:19:09.968Z,59.34
2016-09-08T04:20:19.954Z,59.06
2016-09-08T04:21:29.933Z,59.25
2016-09-08T04:22:39.597Z,59.06
2016-09-08T04:23:49.888Z,59.09
2016-09-08T04:25:00.172Z,58.89
2016-09-08T04:26:10.461Z,58.32
2016-09-08T04:27:20.440Z,58.8
2016-09-08T04:28:30.734Z,58.42
2016-09-08T04:29:40.416Z,58.22
2016-09-08T04:30:50.427Z,58.8
2016-09-08T04:32:00.426Z,58.89
2016-09-08T04:33:10.442Z,58.7
2016-09-08T04:34:20.742Z,58.7
2016-09-08T04:35:30.415Z,58.89
2016-09-08T04:36:40.396Z,58.8
2016-09-08T04:37:50.374Z,58.8
2016-09-08T04:39:00.364Z,58.89
2016-09-08T04:40:10.658Z,58.8
2016-09-08T04:41:20.623Z,58.89
2016-09-08T04:42:30.909Z,58.73
2016-09-08T04:43:40.588Z,58.45
2016-09-08T04:44:50.569Z,58.73
2016-09-08T04:46:00.855Z,58.64
2016-09-08T04:47:10.522Z,58.64
2016-09-08T04:48:20.508Z,58.54
2016-09-08T04:49:30.791Z,58.64
2016-09-08T04:50:41.081Z,58.83
2016-09-08T04:51:51.368Z,58.83
2016-09-08T04:53:01.352Z,58.64
2016-09-08T04:54:11.637Z,58.83
2016-09-08T04:55:21.301Z,58.83
2016-09-08T04:56:30.972Z,58.06
2016-09-08T04:57:40.961Z,58.54
2016-09-08T04:58:51.255Z,58.47
2016-09-08T05:00:01.234Z,58.18
2016-09-08T05:01:11.207Z,58.47
2016-09-08T05:02:21.503Z,57.99
2016-09-08T05:03:31.175Z,58.47
2016-09-08T05:04:41.150Z,58.09
2016-09-08T05:05:50.845Z,57.9
2016-09-08T05:07:01.122Z,58.18
2016-09-08T05:08:11.098Z,57.99
2016-09-08T05:09:20.464Z,58.18
2016-09-08T05:10:30.752Z,57.83
2016-09-08T05:11:40.424Z,57.64
2016-09-08T05:12:50.100Z,57.35
2016-09-08T05:14:00.375Z,57.73
2016-09-08T05:15:10.353Z,58.4
2016-09-08T05:16:20.020Z,58.12
2016-09-08T05:17:30.308Z,58.22
2016-09-08T05:18:39.664Z,58.5
2016-09-08T05:19:49.960Z,58.02
2016-09-08T05:21:00.238Z,58.31
2016-09-08T05:22:10.530Z,58.15
2016-09-08T05:23:20.817Z,58.15
2016-09-08T05:24:30.798Z,58.15
2016-09-08T05:25:41.083Z,58.05
2016-09-08T05:26:51.401Z,57.86
2016-09-08T05:28:01.698Z,58.05
2016-09-08T05:29:11.704Z,57.76
2016-09-08T05:30:21.682Z,57.79
2016-09-08T05:31:31.964Z,57.6
2016-09-08T05:32:42.249Z,57.98
2016-09-08T05:33:52.594Z,57.69
2016-09-08T05:35:02.871Z,58.17
2016-09-08T05:36:13.165Z,58.56
2016-09-08T05:37:23.470Z,57.98
2016-09-08T05:38:33.752Z,57.98
2016-09-08T05:39:43.131Z,57.98
2016-09-08T05:40:53.101Z,57.6
2016-09-08T05:42:03.379Z,57.62
2016-09-08T05:43:13.685Z,57.79
2016-09-08T05:44:23.664Z,57.92
2016-09-08T05:45:33.640Z,57.6
2016-09-08T05:46:43.620Z,57.98
2016-09-08T05:47:53.916Z,57.92
2016-09-08T05:49:04.213Z,58.11
2016-09-08T05:50:14.515Z,57.24
2016-09-08T05:51:24.492Z,57.24
2016-09-08T05:52:34.802Z,57.82
2016-09-08T05:53:45.080Z,57.75
2016-09-08T05:54:55.360Z,58.04
2016-09-08T05:56:05.363Z,57.75
2016-09-08T05:57:15.345Z,57.27
2016-09-08T05:58:25.033Z,57.17
2016-09-08T05:59:35.330Z,57.29
2016-09-08T06:00:45.009Z,57.39
2016-09-08T06:01:55.292Z,58.17
2016-09-08T06:03:05.607Z,58.17
2016-09-08T06:04:15.905Z,57.2
2016-09-08T06:05:26.200Z,57.68
2016-09-08T06:06:36.494Z,57.68
2016-09-08T06:07:46.787Z,57.78
2016-09-08T06:08:56.770Z,57.97
2016-09-08T06:10:07.059Z,57.78
2016-09-08T06:11:17.035Z,57.97
2016-09-08T06:12:26.719Z,57.68
2016-09-08T06:13:36.709Z,58.17
2016-09-08T06:14:47.012Z,57.81
2016-09-08T06:15:56.989Z,57.71
2016-09-08T06:17:06.965Z,57.42
2016-09-08T06:18:17.262Z,57.52
2016-09-08T06:19:27.556Z,57.42
2016-09-08T06:20:37.225Z,57.42
2016-09-08T06:21:46.916Z,57.32
2016-09-08T06:22:57.219Z,57.35
2016-09-08T06:24:07.200Z,57.26
2016-09-08T06:25:17.517Z,57.45
2016-09-08T06:26:27.802Z,57.16
2016-09-08T06:27:38.101Z,57.35
2016-09-08T06:28:48.381Z,57.06
2016-09-08T06:29:58.679Z,57.29
2016-09-08T06:31:08.675Z,57.38
2016-09-08T06:32:18.966Z,57.38
2016-09-08T06:33:29.269Z,57.38
2016-09-08T06:34:39.299Z,57.29
2016-09-08T06:35:49.272Z,57.38
2016-09-08T06:36:59.558Z,57.29
2016-09-08T06:38:09.852Z,57.09
2016-09-08T06:39:20.131Z,57.38
2016-09-08T06:40:30.113Z,57.48
2016-09-08T06:41:40.419Z,57.51
2016-09-08T06:42:50.727Z,57.31
2016-09-08T06:44:00.704Z,57.21
2016-09-08T06:45:10.999Z,57.51
2016-09-08T06:46:21.292Z,57.41
2016-09-08T06:47:31.281Z,57.31
2016-09-08T06:48:41.591Z,57.41
2016-09-08T06:49:51.596Z,57.54
2016-09-08T06:51:01.886Z,57.24
2016-09-08T06:52:12.191Z,57.44
2016-09-08T06:53:22.486Z,57.54
2016-09-08T06:54:32.452Z,57.44
2016-09-08T06:55:42.761Z,57.44
2016-09-08T06:56:53.056Z,57.86
2016-09-08T06:58:03.365Z,57.37
2016-09-08T06:59:13.056Z,57.46
2016-09-08T07:00:23.354Z,57.66
2016-09-08T07:01:33.678Z,57.46
2016-09-08T07:02:43.665Z,57.46
2016-09-08T07:03:53.958Z,57.56
2016-09-08T07:05:04.249Z,57.46
2016-09-08T07:06:14.559Z,57.76
2016-09-08T07:07:24.853Z,57.37
2016-09-08T07:08:35.142Z,57.4
2016-09-08T07:09:45.421Z,57.4
2016-09-08T07:10:55.087Z,57.3
2016-09-08T07:12:05.371Z,57.3
2016-09-08T07:13:15.657Z,57.3
2016-09-08T07:14:25.644Z,57.4
2016-09-08T07:15:35.927Z,57.4
2016-09-08T07:16:46.229Z,57.04
2016-09-08T07:17:56.518Z,57.14
2016-09-08T07:19:06.511Z,57.14
2016-09-08T07:20:16.825Z,57.43
2016-09-08T07:21:27.120Z,56.94
2016-09-08T07:22:37.111Z,56.94
2016-09-08T07:23:47.397Z,57.14
2016-09-08T07:24:57.690Z,57.14
2016-09-08T07:26:07.983Z,57.14
2016-09-08T07:27:18.283Z,57.04
2016-09-08T07:28:28.269Z,57.43
2016-09-08T07:29:38.253Z,57.91
2016-09-08T07:30:48.233Z,57.53
2016-09-08T07:31:58.224Z,57.91
2016-09-08T07:33:08.197Z,57.33
2016-09-08T07:34:18.490Z,57.23
2016-09-08T07:35:28.474Z,57.07
2016-09-08T07:36:38.758Z,57.07
2016-09-08T07:37:49.032Z,57.17
2016-09-08T07:38:59.326Z,56.97
2016-09-08T07:40:09.631Z,57.07
2016-09-08T07:41:19.949Z,57.17
2016-09-08T07:42:30.241Z,57.17
2016-09-08T07:43:40.519Z,56.71
2016-09-08T07:44:50.809Z,56.71
2016-09-08T07:46:00.796Z,57.19
2016-09-08T07:47:11.093Z,56.71
2016-09-08T07:48:21.388Z,57.09
2016-09-08T07:49:31.367Z,56.81
2016-09-08T07:50:41.653Z,56.81
2016-09-08T07:51:51.951Z,56.71
2016-09-08T07:53:02.254Z,56.93
2016-09-08T07:54:12.539Z,57.12
2016-09-08T07:55:22.825Z,57.12
2016-09-08T07:56:32.818Z,57.22
2016-09-08T07:57:43.129Z,57.15
2016-09-08T07:58:53.109Z,57.15
2016-09-08T08:00:03.405Z,57.15
2016-09-08T08:01:13.374Z,57.06
2016-09-08T08:02:23.367Z,56.96
2016-09-08T08:03:33.668Z,57.25
2016-09-08T08:04:43.678Z,57.06
2016-09-08T08:05:53.671Z,56.98
2016-09-08T08:07:03.955Z,56.5
2016-09-08T08:08:14.249Z,56.5
2016-09-08T08:09:24.255Z,56.98
2016-09-08T08:10:34.567Z,56.6
2016-09-08T08:11:44.879Z,56.82
2016-09-08T08:12:55.157Z,56.62
2016-09-08T08:14:04.827Z,56.72
2016-09-08T08:15:15.116Z,56.52
2016-09-08T08:16:25.117Z,57.21
2016-09-08T08:17:35.453Z,57.11
2016-09-08T08:18:45.447Z,56.85
2016-09-08T08:19:55.733Z,57.14
2016-09-08T08:21:06.057Z,56.75
2016-09-08T08:22:16.074Z,56.65
2016-09-08T08:23:26.386Z,56.26
2016-09-08T08:24:36.384Z,57.14
2016-09-08T08:25:46.685Z,56.65
2016-09-08T08:26:56.977Z,57.23
2016-09-08T08:28:07.266Z,56.75
2016-09-08T08:29:17.582Z,57.14
2016-09-08T08:30:27.869Z,56.46
2016-09-08T08:31:37.850Z,57.23
2016-09-08T08:32:48.129Z,56.56
2016-09-08T08:33:58.428Z,57.23
2016-09-08T08:35:08.416Z,56.46
2016-09-08T08:36:18.440Z,57.07
2016-09-08T08:37:28.743Z,56.97
2016-09-08T08:38:39.039Z,56.97
2016-09-08T08:39:49.339Z,56.59
2016-09-08T08:40:59.624Z,56.59
2016-09-08T08:42:09.925Z,56.77
2016-09-08T08:43:20.238Z,56.39
2016-09-08T08:44:30.549Z,56.39
2016-09-08T08:45:40.855Z,56.49
2016-09-08T08:46:50.537Z,56.59
2016-09-08T08:48:00.834Z,56.68
2016-09-08T08:49:11.146Z,56.68
2016-09-08T08:50:21.442Z,56.9
2016-09-08T08:51:31.134Z,56.39
2016-09-08T08:52:41.437Z,56.68
2016-09-08T08:53:51.422Z,56.51
2016-09-08T08:55:01.715Z,56.81
2016-09-08T08:56:11.712Z,56.61
2016-09-08T08:57:22.008Z,56.22
2016-09-08T08:58:32.301Z,56.12
2016-09-08T08:59:42.587Z,56.71
2016-09-08T09:00:52.877Z,56.74
2016-09-08T09:02:02.854Z,56.32
2016-09-08T09:03:12.215Z,56.15
2016-09-08T09:04:22.531Z,56.03
2016-09-08T09:05:32.819Z,56.25
2016-09-08T09:06:43.106Z,56.71
2016-09-08T09:07:53.096Z,56.25
2016-09-08T09:09:03.386Z,56.64
2016-09-08T09:10:13.681Z,56.74
2016-09-08T09:11:23.663Z,56.45
2016-09-08T09:12:33.953Z,56.45
2016-09-08T09:13:43.937Z,56.84
2016-09-08T09:14:54.248Z,56.64
2016-09-08T09:16:04.277Z,56.25
2016-09-08T09:17:14.276Z,56.45
2016-09-08T09:18:24.566Z,56.27
2016-09-08T09:19:34.850Z,56.35
2016-09-08T09:20:45.141Z,56.09
2016-09-08T09:21:55.122Z,56.09
2016-09-08T09:23:05.096Z,56.09
2016-09-08T09:24:15.392Z,56.09
2016-09-08T09:25:25.705Z,55.99
2016-09-08T09:26:35.986Z,56.37
2016-09-08T09:27:45.657Z,56.27
2016-09-08T09:28:55.649Z,55.91
2016-09-08T09:30:05.618Z,56.11
2016-09-08T09:31:15.907Z,56.11
2016-09-08T09:32:25.914Z,56.11
2016-09-08T09:33:35.586Z,56.21
2016-09-08T09:34:45.892Z,56.21
2016-09-08T09:35:55.883Z,56.01
2016-09-08T09:37:06.237Z,56.04
2016-09-08T09:38:16.532Z,56.52
2016-09-08T09:39:26.831Z,56.14
2016-09-08T09:40:37.127Z,56.33
2016-09-08T09:41:47.429Z,56.04
2016-09-08T09:42:57.750Z,56.14
2016-09-08T09:44:08.058Z,56.23
2016-09-08T09:45:18.363Z,56.23
2016-09-08T09:46:28.369Z,56.23
2016-09-08T09:47:38.656Z,56.23
2016-09-08T09:48:48.655Z,56.16
2016-09-08T09:49:58.966Z,56.07
2016-09-08T09:51:09.269Z,56.07
2016-09-08T09:52:19.572Z,56.07
2016-09-08T09:53:29.865Z,55.71
2016-09-08T09:54:40.176Z,55.9
2016-09-08T09:55:50.493Z,56
2016-09-08T09:57:00.478Z,55.9
2016-09-08T09:58:10.783Z,55.71
2016-09-08T09:59:20.784Z,55.63
2016-09-08T10:00:30.765Z,55.54
2016-09-08T10:01:41.063Z,55.54
2016-09-08T10:02:51.050Z,56.02
2016-09-08T10:04:01.037Z,55.73
2016-09-08T10:05:11.009Z,55.63
2016-09-08T10:06:20.995Z,55.63
2016-09-08T10:07:31.300Z,55.66
2016-09-08T10:08:41.301Z,55.47
2016-09-08T10:09:51.608Z,55.47
2016-09-08T10:11:01.605Z,55.47
2016-09-08T10:12:11.922Z,55.86
2016-09-08T10:13:21.906Z,55.76
2016-09-08T10:14:31.896Z,55.76
2016-09-08T10:15:41.913Z,55.57
2016-09-08T10:16:52.204Z,55.57
2016-09-08T10:18:02.212Z,55.59
2016-09-08T10:19:12.552Z,55.88
2016-09-08T10:20:22.571Z,55.59
2016-09-08T10:21:32.867Z,55.69
2016-09-08T10:22:43.162Z,55.69
2016-09-08T10:23:53.464Z,55.98
2016-09-08T10:25:03.151Z,55.98
2016-09-08T10:26:13.455Z,55.88
2016-09-08T10:27:23.471Z,55.79
2016-09-08T10:28:33.772Z,55.52
2016-09-08T10:29:44.064Z,55.71
2016-09-08T10:30:54.075Z,55.71
2016-09-08T10:32:04.404Z,55.49
2016-09-08T10:33:14.688Z,55.71
2016-09-08T10:34:25.001Z,55.79
2016-09-08T10:35:34.996Z,55.71
2016-09-08T10:36:45.001Z,55.69
2016-09-08T10:37:55.307Z,55.91
2016-09-08T10:39:05.297Z,55.81
2016-09-08T10:40:15.605Z,55.81
2016-09-08T10:41:25.302Z,55.65
2016-09-08T10:42:35.627Z,55.81
2016-09-08T10:43:45.944Z,55.74
2016-09-08T10:44:56.266Z,55.74
2016-09-08T10:46:06.577Z,55.65
2016-09-08T10:47:16.563Z,55.65
2016-09-08T10:48:26.863Z,55.94
2016-09-08T10:49:37.163Z,55.77
2016-09-08T10:50:47.464Z,55.47
2016-09-08T10:51:57.751Z,55.38
2016-09-08T10:53:08.050Z,55.47
2016-09-08T10:54:18.354Z,55.96
2016-09-08T10:55:28.660Z,56.06
2016-09-08T10:56:38.949Z,55.96
2016-09-08T10:57:49.236Z,55.96
2016-09-08T10:58:59.564Z,55.96
2016-09-08T11:00:09.253Z,55.77
2016-09-08T11:01:19.535Z,55.96
2016-09-08T11:02:29.236Z,55.96
2016-09-08T11:03:39.221Z,55.96
2016-09-08T11:04:49.518Z,55.67
2016-09-08T11:05:59.850Z,55.8
2016-09-08T11:07:10.164Z,55.96
2016-09-08T11:08:20.160Z,55.99
2016-09-08T11:09:29.844Z,55.7
2016-09-08T11:10:39.522Z,55.9
2016-09-08T11:11:49.824Z,55.51
2016-09-08T11:12:59.813Z,55.31
2016-09-08T11:14:10.124Z,55.43
2016-09-08T11:15:20.108Z,55.33
2016-09-08T11:16:30.094Z,55.33
2016-09-08T11:17:40.395Z,55.33
2016-09-08T11:18:50.085Z,55.14
2016-09-08T11:20:00.068Z,55.14
2016-09-08T11:21:10.425Z,55.04
2016-09-08T11:22:20.718Z,55.46
2016-09-08T11:23:30.409Z,55.46
2016-09-08T11:24:40.705Z,55.26
2016-09-08T11:25:51.003Z,55.36
2016-09-08T11:27:01.295Z,55.36
2016-09-08T11:28:11.586Z,55.36
2016-09-08T11:29:21.585Z,55.36
2016-09-08T11:30:31.890Z,55.26
2016-09-08T11:31:42.192Z,55.56
2016-09-08T11:32:52.506Z,55.66
2016-09-08T11:34:02.810Z,56.05
2016-09-08T11:35:12.812Z,56.02
2016-09-08T11:36:22.808Z,55.66
2016-09-08T11:37:32.800Z,55.95
2016-09-08T11:38:43.137Z,55.56
2016-09-08T11:39:52.810Z,55.85
2016-09-08T11:41:03.094Z,55.76
2016-09-08T11:42:13.108Z,55.53
2016-09-08T11:43:23.094Z,56.05
2016-09-08T11:44:33.404Z,56.02
2016-09-08T11:45:43.386Z,56.02
2016-09-08T11:46:53.690Z,55.92
2016-09-08T11:48:04.000Z,55.92
2016-09-08T11:49:14.345Z,55.92
2016-09-08T11:50:24.355Z,55.92
2016-09-08T11:51:34.673Z,55.92
2016-09-08T11:52:44.982Z,56.02
2016-09-08T11:53:54.999Z,56.05
2016-09-08T11:55:05.317Z,55.92
2016-09-08T11:56:15.628Z,55.66
2016-09-08T11:57:25.621Z,55.66
2016-09-08T11:58:35.927Z,55.46
2016-09-08T11:59:46.235Z,55.36
2016-09-08T12:00:56.518Z,55.19
2016-09-08T12:02:06.806Z,55.19
2016-09-08T12:03:16.818Z,55.39
2016-09-08T12:04:27.115Z,55.39
2016-09-08T12:05:37.391Z,55.49
2016-09-08T12:06:47.400Z,55.49
2016-09-08T12:07:57.702Z,55.39
2016-09-08T12:09:07.987Z,55.39
2016-09-08T12:10:18.288Z,55.19
2016-09-08T12:11:28.004Z,55.39
2016-09-08T12:12:38.316Z,55.29
2016-09-08T12:13:48.323Z,55.39
2016-09-08T12:14:58.615Z,55.51
2016-09-08T12:16:08.922Z,55.51
2016-09-08T12:17:19.223Z,55.41
2016-09-08T12:18:29.538Z,55.41
2016-09-08T12:19:39.544Z,55.39
2016-09-08T12:20:49.854Z,55.12
2016-09-08T12:22:00.169Z,55.51
2016-09-08T12:23:10.459Z,55.41
2016-09-08T12:24:20.781Z,55.41
2016-09-08T12:25:30.777Z,55.51
2016-09-08T12:26:40.763Z,55.41
2016-09-08T12:27:51.065Z,55.41
2016-09-08T12:29:01.367Z,55.51
2016-09-08T12:30:11.679Z,55.22
2016-09-08T12:31:21.684Z,55.12
2016-09-08T12:32:31.995Z,55.32
2016-09-08T12:33:42.309Z,55.41
2016-09-08T12:34:52.311Z,55.61
2016-09-08T12:36:02.004Z,55.61
2016-09-08T12:37:11.994Z,55.91
2016-09-08T12:38:21.995Z,56.07
2016-09-08T12:39:32.007Z,56.1
2016-09-08T12:40:41.710Z,55.91
2016-09-08T12:41:52.010Z,56.1
2016-09-08T12:43:02.013Z,56.1
2016-09-08T12:44:12.324Z,55.91
2016-09-08T12:45:22.659Z,56.01
2016-09-08T12:46:32.947Z,55.61
2016-09-08T12:47:42.944Z,55.61
2016-09-08T12:48:53.236Z,55.61
2016-09-08T12:50:03.229Z,55.91
2016-09-08T12:51:13.530Z,56.1
2016-09-08T12:52:23.831Z,56.07
2016-09-08T12:53:33.843Z,56.1
2016-09-08T12:54:44.384Z,55.61
2016-09-08T12:55:54.693Z,55.61
2016-09-08T12:57:05.005Z,55.61
2016-09-08T12:58:15.345Z,55.51
2016-09-08T12:59:25.358Z,55.51
2016-09-08T13:00:35.653Z,55.51
2016-09-08T13:01:45.937Z,55.61
2016-09-08T13:02:56.242Z,55.41
2016-09-08T13:04:06.233Z,55.71
2016-09-08T13:05:16.244Z,55.41
2016-09-08T13:06:26.233Z,56.01
2016-09-08T13:07:36.541Z,56.01
2016-09-08T13:08:46.547Z,56.1
2016-09-08T13:09:58.459Z,56.01
2016-09-08T13:11:09.159Z,55.91
2016-09-08T13:12:19.170Z,55.81
2016-09-08T13:13:28.899Z,55.39
2016-09-08T13:14:39.262Z,56.1
2016-09-08T13:15:49.298Z,56.07
2016-09-08T13:16:59.324Z,56.07
2016-09-08T13:18:09.653Z,56.27
2016-09-08T13:19:19.963Z,56.27
2016-09-08T13:20:30.283Z,56.07
2016-09-08T13:21:40.590Z,55.78
2016-09-08T13:22:50.921Z,56.17
2016-09-08T13:24:01.236Z,56.07
2016-09-08T13:25:11.549Z,56.05
2016-09-08T13:26:21.884Z,56.07
2016-09-08T13:27:32.186Z,56.07
2016-09-08T13:28:42.178Z,56.17
2016-09-08T13:29:52.462Z,56.27
2016-09-08T13:31:02.771Z,56.17
2016-09-08T13:32:13.113Z,55.98
2016-09-08T13:33:23.441Z,55.98
2016-09-08T13:34:33.752Z,56.07
2016-09-08T13:35:44.068Z,56.07
2016-09-08T13:36:54.399Z,55.78
2016-09-08T13:38:04.725Z,55.68
2016-09-08T13:39:14.712Z,55.68
2016-09-08T13:40:24.800Z,55.58
2016-09-08T13:41:34.505Z,55.98
2016-09-08T13:42:44.806Z,56.07
2016-09-08T13:43:54.807Z,55.98
2016-09-08T13:45:05.129Z,56.17
2016-09-08T13:46:15.112Z,56.05
2016-09-08T13:47:25.413Z,56.17
2016-09-08T13:48:35.410Z,55.95
2016-09-08T13:49:45.721Z,56.05
2016-09-08T13:50:55.739Z,56.15
2016-09-08T13:52:06.081Z,56.15
2016-09-08T13:53:16.381Z,56.15
2016-09-08T13:54:26.678Z,56.05
2016-09-08T13:55:36.693Z,56.24
2016-09-08T13:56:46.762Z,55.95
2016-09-08T13:57:57.097Z,55.85
2016-09-08T13:59:07.425Z,56.05
2016-09-08T14:00:17.748Z,56.15
2016-09-08T14:01:28.067Z,56.24
2016-09-08T14:02:38.390Z,56.24
2016-09-08T14:03:48.693Z,56.24
2016-09-08T14:04:59.021Z,56.12
2016-09-08T14:06:09.316Z,56.21
2016-09-08T14:07:19.013Z,56.12
2016-09-08T14:08:29.338Z,56.12
2016-09-08T14:09:39.642Z,56.31
2016-09-08T14:10:49.692Z,56.41
2016-09-08T14:12:00.003Z,56.41
2016-09-08T14:13:10.325Z,56.51
2016-09-08T14:14:20.627Z,56.51
2016-09-08T14:15:30.638Z,56.61
2016-09-08T14:16:40.958Z,56.31
2016-09-08T14:17:50.947Z,56.41
2016-09-08T14:19:01.277Z,56.61
2016-09-08T14:20:11.599Z,56.38
2016-09-08T14:21:21.923Z,56.41
2016-09-08T14:22:32.235Z,56.68
2016-09-08T14:23:42.556Z,56.68
2016-09-08T14:24:52.868Z,56.68
2016-09-08T14:26:03.194Z,56.68
2016-09-08T14:27:13.511Z,56.29
2016-09-08T14:28:23.860Z,56.87
2016-09-08T14:29:34.177Z,56.68
2016-09-08T14:30:44.483Z,56.58
2016-09-08T14:31:54.783Z,56.38
2016-09-08T14:33:05.092Z,56.58
2016-09-08T14:34:15.413Z,56.19
2016-09-08T14:35:25.428Z,56.58
2016-09-08T14:36:35.751Z,57.07
2016-09-08T14:37:46.061Z,56.87
2016-09-08T14:38:56.364Z,56.29
2016-09-08T14:40:05.742Z,56.58
2016-09-08T14:41:16.111Z,56.38
2016-09-08T14:42:26.110Z,56.38
2016-09-08T14:43:36.127Z,57.07
2016-09-08T14:44:46.132Z,56.56
2016-09-08T14:45:56.453Z,56.95
2016-09-08T14:47:06.155Z,56.58
2016-09-08T14:48:16.469Z,56.65
2016-09-08T14:49:26.152Z,56.97
2016-09-08T14:50:36.464Z,56.56
2016-09-08T14:51:46.766Z,56.65
2016-09-08T14:52:57.060Z,57.04
2016-09-08T14:54:07.398Z,56.65
2016-09-08T14:55:17.400Z,56.75
2016-09-08T14:56:27.142Z,56.56
2016-09-08T14:57:37.465Z,56.56
2016-09-08T14:58:47.778Z,57.04
2016-09-08T14:59:58.092Z,56.95
2016-09-08T15:01:08.107Z,57.14
2016-09-08T15:02:18.420Z,57.53
2016-09-08T15:03:28.409Z,57.5
2016-09-08T15:04:38.727Z,57.5
2016-09-08T15:05:48.733Z,56.92
2016-09-08T15:06:59.075Z,57.4
2016-09-08T15:08:09.394Z,57.5
2016-09-08T15:09:19.699Z,56.92
2016-09-08T15:10:30.034Z,56.92
2016-09-08T15:11:40.330Z,57.01
2016-09-08T15:12:50.658Z,56.92
2016-09-08T15:14:00.678Z,56.92
2016-09-08T15:15:11.009Z,57.11
2016-09-08T15:16:21.340Z,57.6
2016-09-08T15:17:31.652Z,56.92
2016-09-08T15:18:41.982Z,56.89
2016-09-08T15:19:52.302Z,56.7
2016-09-08T15:21:02.597Z,56.89
2016-09-08T15:22:12.950Z,56.99
2016-09-08T15:23:22.940Z,56.7
2016-09-08T15:24:33.274Z,57.18
2016-09-08T15:25:43.581Z,57.57
2016-09-08T15:26:53.871Z,57.38
2016-09-08T15:28:04.213Z,57.57
2016-09-08T15:29:14.544Z,57.38
2016-09-08T15:30:24.873Z,57.57
2016-09-08T15:31:35.188Z,57.67
2016-09-08T15:32:45.492Z,57.57
2016-09-08T15:33:55.815Z,57.48
2016-09-08T15:35:06.107Z,56.96
2016-09-08T15:36:16.420Z,57.09